createdAt,value
2022-12-18T00:13:10.332Z,-4.17
2022-12-18T00:33:13.195Z,-3.56
2022-12-18T00:53:16.464Z,-3.08
2022-12-18T01:13:19.065Z,-2.91
2022-12-18T01:33:21.777Z,-2.91
2022-12-18T01:53:24.477Z,-2.80
2022-12-18T02:13:27.165Z,-2.81
2022-12-18T02:33:29.933Z,-2.79
2022-12-18T02:53:32.546Z,-2.76
2022-12-18T03:13:35.039Z,-2.83
2022-12-18T03:33:38.109Z,-2.78
2022-12-18T03:53:41.360Z,-2.91
2022-12-18T04:13:44.342Z,-2.89
2022-12-18T04:33:47.103Z,-3.00
2022-12-18T04:53:49.751Z,-3.47
2022-12-18T05:13:52.215Z,-3.27
2022-12-18T05:33:54.930Z,-3.05
2022-12-18T05:53:57.406Z,-2.99
2022-12-18T06:14:00.170Z,-3.02
2022-12-18T06:34:03.434Z,-3.51
2022-12-18T06:54:06.452Z,-3.89
2022-12-18T07:14:09.752Z,-3.81
2022-12-18T07:34:12.854Z,-3.71
2022-12-18T07:54:15.383Z,-4.43
2022-12-18T08:14:17.940Z,-4.07
2022-12-18T08:34:20.610Z,-4.19
2022-12-18T08:54:24.105Z,-3.94
2022-12-18T09:14:26.576Z,-4.06
2022-12-18T09:34:29.029Z,-3.53
2022-12-18T09:54:31.696Z,-3.29
2022-12-18T10:14:34.308Z,-2.49
2022-12-18T10:34:36.940Z,-1.61
2022-12-18T10:54:39.422Z,-1.31
2022-12-18T11:14:46.718Z,-0.47
2022-12-18T11:34:52.496Z,-0.32
2022-12-18T11:54:58.531Z,-0.55
2022-12-18T12:15:00.988Z,-1.11
2022-12-18T12:35:09.281Z,-1.24
2022-12-18T12:55:14.832Z,-1.93
2022-12-18T13:15:17.662Z,-2.15
2022-12-18T13:35:20.370Z,-2.47
2022-12-18T13:55:25.561Z,-2.65
2022-12-18T14:15:28.657Z,-3.24
2022-12-18T14:35:31.426Z,-3.77
2022-12-18T14:55:34.541Z,-4.72
2022-12-18T15:15:41.551Z,-5.47
2022-12-18T15:35:47.335Z,-5.81
2022-12-18T15:56:08.533Z,-6.28
2022-12-18T16:16:12.132Z,-6.55
2022-12-18T16:36:14.942Z,-6.94
2022-12-18T16:56:17.581Z,-7.16
2022-12-18T17:16:20.044Z,-7.41
2022-12-18T17:36:22.734Z,-7.71
2022-12-18T17:56:25.767Z,-7.88
2022-12-18T18:16:28.499Z,-8.08
2022-12-18T18:36:31.007Z,-8.29
2022-12-18T19:16:56.234Z,-8.90
2022-12-18T19:37:00.104Z,-9.03
2022-12-18T19:57:04.290Z,-9.08
2022-12-18T20:17:07.877Z,-8.88
2022-12-18T20:37:12.361Z,-8.80
2022-12-18T20:57:18.090Z,-8.64
2022-12-18T21:17:20.600Z,-8.58
2022-12-18T21:37:23.189Z,-8.53
2022-12-18T21:57:25.836Z,-8.44
2022-12-18T22:17:28.546Z,-8.45
2022-12-18T22:37:32.170Z,-8.66
2022-12-18T22:57:34.840Z,-8.74
2022-12-18T23:17:38.816Z,-8.80
2022-12-18T23:37:59.441Z,-8.81
2022-12-18T23:58:02.309Z,-8.72
